createdAt,value
2023-03-19T00:01:06.429Z,8.10
2023-03-19T00:03:36.506Z,6.77
2023-03-19T00:06:05.241Z,8.70
2023-03-19T00:08:33.603Z,7.47
2023-03-19T00:11:08.323Z,8.50
2023-03-19T00:13:36.940Z,8.13
2023-03-19T00:16:06.129Z,9.87
2023-03-19T00:18:36.375Z,6.77
2023-03-19T00:21:05.272Z,7.13
2023-03-19T00:23:33.633Z,7.23
2023-03-19T00:26:02.025Z,6.90
2023-03-19T00:28:30.665Z,6.77
2023-03-19T00:30:59.290Z,7.17
2023-03-19T00:33:27.696Z,7.97
2023-03-19T00:35:58.843Z,11.90
2023-03-19T00:38:27.248Z,9.53
2023-03-19T00:40:55.627Z,9.67
2023-03-19T00:43:24.023Z,7.83
2023-03-19T00:45:52.818Z,7.63
2023-03-19T00:48:21.657Z,6.40
2023-03-19T00:50:50.261Z,9.10
2023-03-19T00:53:20.416Z,6.80
2023-03-19T00:55:48.947Z,7.17
2023-03-19T00:58:17.758Z,9.20
2023-03-19T01:00:46.529Z,8.23
2023-03-19T01:03:16.251Z,9.90
2023-03-19T01:05:44.548Z,8.67
2023-03-19T01:08:14.492Z,8.93
2023-03-19T01:10:44.881Z,10.83
2023-03-19T01:13:13.966Z,11.87
2023-03-19T01:15:45.523Z,9.93
2023-03-19T01:18:14.613Z,8.07
2023-03-19T01:20:45.610Z,8.03
2023-03-19T01:23:14.509Z,8.53
2023-03-19T01:25:44.220Z,7.83
2023-03-19T01:28:12.743Z,10.10
2023-03-19T01:30:42.316Z,8.87
2023-03-19T01:33:39.350Z,7.33
2023-03-19T01:36:26.453Z,6.50
2023-03-19T01:39:01.037Z,9.50
2023-03-19T01:42:39.957Z,9.43
2023-03-19T01:45:35.097Z,8.17
2023-03-19T01:48:35.107Z,8.67
2023-03-19T01:51:10.455Z,9.00
2023-03-19T01:53:59.263Z,9.73
2023-03-19T01:56:48.268Z,7.83
2023-03-19T01:59:26.949Z,8.77
2023-03-19T02:02:23.490Z,9.27
2023-03-19T02:04:56.856Z,7.07
2023-03-19T02:07:26.468Z,8.60
2023-03-19T02:09:55.385Z,10.40
2023-03-19T02:12:23.809Z,7.80
2023-03-19T02:14:52.279Z,7.30
2023-03-19T02:17:23.722Z,8.60
2023-03-19T02:19:59.376Z,8.73
2023-03-19T02:22:32.290Z,7.13
2023-03-19T02:25:07.444Z,8.40
2023-03-19T02:27:39.732Z,8.03
2023-03-19T02:30:26.145Z,9.57
2023-03-19T02:32:55.493Z,7.50
2023-03-19T02:35:23.864Z,9.33
2023-03-19T02:37:52.222Z,6.77
2023-03-19T02:40:26.282Z,9.30
2023-03-19T02:42:57.535Z,9.20
2023-03-19T02:45:31.523Z,8.60
2023-03-19T02:48:00.719Z,8.70
2023-03-19T02:50:29.233Z,6.87
2023-03-19T02:52:57.606Z,7.73
2023-03-19T02:55:26.463Z,7.70
2023-03-19T02:57:55.014Z,7.23
2023-03-19T03:00:26.624Z,8.83
2023-03-19T03:02:55.412Z,7.47
2023-03-19T03:05:23.820Z,9.80
2023-03-19T03:07:53.509Z,8.33
2023-03-19T03:10:22.136Z,7.80
2023-03-19T03:12:50.537Z,10.73
2023-03-19T03:15:19.334Z,6.73
2023-03-19T03:17:49.194Z,6.13
2023-03-19T03:20:19.841Z,9.10
2023-03-19T03:22:49.081Z,7.40
2023-03-19T03:25:17.796Z,6.30
2023-03-19T03:27:46.215Z,7.13
2023-03-19T03:30:16.052Z,5.93
2023-03-19T03:32:45.204Z,6.13
2023-03-19T03:35:21.842Z,10.00
2023-03-19T03:37:51.151Z,6.83
2023-03-19T03:40:20.495Z,6.13
2023-03-19T03:42:48.843Z,7.23
2023-03-19T03:45:17.390Z,7.17
2023-03-19T03:47:47.443Z,6.47
2023-03-19T03:50:18.544Z,9.57
2023-03-19T03:52:48.942Z,7.87
2023-03-19T03:55:17.471Z,8.57
2023-03-19T03:57:46.112Z,6.27
2023-03-19T04:00:16.028Z,6.87
2023-03-19T04:02:46.334Z,7.60
2023-03-19T04:05:18.902Z,6.40
2023-03-19T04:07:47.892Z,6.20
2023-03-19T04:10:16.738Z,8.80
2023-03-19T04:12:45.955Z,7.53
2023-03-19T04:15:14.735Z,5.67
2023-03-19T04:17:46.454Z,5.87
2023-03-19T04:20:16.380Z,6.13
2023-03-19T04:22:46.685Z,6.07
2023-03-19T04:25:15.411Z,5.40
2023-03-19T04:27:43.888Z,8.60
2023-03-19T04:30:14.266Z,7.07
2023-03-19T04:32:44.423Z,6.30
2023-03-19T04:35:13.136Z,5.60
2023-03-19T04:37:43.494Z,6.90
2023-03-19T04:40:15.449Z,7.60
2023-03-19T04:42:45.344Z,6.07
2023-03-19T04:45:22.437Z,5.07
2023-03-19T04:47:51.588Z,5.87
2023-03-19T04:50:21.263Z,5.90
2023-03-19T04:52:49.695Z,5.47
2023-03-19T04:55:19.636Z,6.90
2023-03-19T04:57:58.834Z,6.83
2023-03-19T05:00:30.811Z,7.83
2023-03-19T05:03:00.218Z,8.93
2023-03-19T05:05:31.066Z,6.40
2023-03-19T05:08:00.092Z,5.73
2023-03-19T05:10:30.235Z,8.50
2023-03-19T05:12:58.616Z,6.50
2023-03-19T05:15:27.098Z,5.43
2023-03-19T05:18:03.131Z,5.80
2023-03-19T05:20:37.230Z,5.33
2023-03-19T05:23:09.484Z,6.00
2023-03-19T05:25:47.754Z,5.43
2023-03-19T05:28:21.806Z,5.47
2023-03-19T05:30:50.428Z,6.57
2023-03-19T05:33:26.379Z,6.03
2023-03-19T05:35:58.226Z,8.90
2023-03-19T05:38:45.211Z,6.50
2023-03-19T05:41:21.593Z,7.43
2023-03-19T05:44:01.227Z,7.07
2023-03-19T05:46:53.503Z,7.30
2023-03-19T05:49:24.152Z,5.63
2023-03-19T05:51:53.100Z,7.27
2023-03-19T05:54:21.476Z,6.90
2023-03-19T05:56:58.286Z,6.57
2023-03-19T05:59:39.334Z,7.77
2023-03-19T06:02:24.884Z,6.43
2023-03-19T06:05:02.526Z,7.43
2023-03-19T06:07:32.514Z,7.30
2023-03-19T06:10:02.131Z,6.50
2023-03-19T06:12:32.516Z,8.80
2023-03-19T06:15:19.168Z,6.27
2023-03-19T06:17:47.655Z,9.53
2023-03-19T06:20:19.166Z,6.13
2023-03-19T06:22:48.412Z,10.37
2023-03-19T06:25:17.154Z,9.57
2023-03-19T06:27:46.878Z,9.33
2023-03-19T06:30:28.452Z,7.50
2023-03-19T06:33:00.319Z,7.87
2023-03-19T06:35:29.846Z,8.87
2023-03-19T06:37:58.547Z,10.53
2023-03-19T06:40:26.963Z,7.37
2023-03-19T06:42:57.094Z,7.00
2023-03-19T06:45:25.828Z,7.80
2023-03-19T06:47:54.142Z,8.77
2023-03-19T06:50:22.514Z,9.03
2023-03-19T06:52:51.056Z,6.93
2023-03-19T06:55:20.534Z,6.97
2023-03-19T06:57:51.284Z,9.43
2023-03-19T07:00:22.761Z,8.83
2023-03-19T07:02:51.172Z,6.57
2023-03-19T07:05:19.620Z,9.27
2023-03-19T07:07:47.961Z,7.60
2023-03-19T07:10:18.118Z,6.40
2023-03-19T07:12:46.494Z,6.83
2023-03-19T07:15:15.307Z,7.53
2023-03-19T07:17:47.366Z,8.87
2023-03-19T07:20:16.716Z,8.13
2023-03-19T07:22:45.045Z,7.87
2023-03-19T07:25:13.352Z,7.20
2023-03-19T07:27:41.794Z,7.93
2023-03-19T07:30:12.177Z,7.80
2023-03-19T07:32:41.002Z,16.27
2023-03-19T07:35:12.005Z,10.60
2023-03-19T07:37:40.537Z,7.87
2023-03-19T07:40:10.965Z,6.60
2023-03-19T07:42:39.557Z,10.67
2023-03-19T07:45:09.627Z,7.80
2023-03-19T07:47:37.943Z,13.30
2023-03-19T07:50:07.894Z,11.93
2023-03-19T07:52:38.062Z,9.20
2023-03-19T07:55:07.489Z,6.47
2023-03-19T07:57:36.100Z,7.97
2023-03-19T08:00:05.113Z,8.17
2023-03-19T08:02:42.827Z,7.17
2023-03-19T08:05:11.967Z,5.80
2023-03-19T08:07:41.857Z,8.07
2023-03-19T08:10:12.137Z,12.60
2023-03-19T08:12:41.329Z,20.87
2023-03-19T08:15:11.998Z,19.57
2023-03-19T08:17:40.420Z,9.87
2023-03-19T08:20:12.048Z,7.97
2023-03-19T08:22:42.031Z,8.93
2023-03-19T08:25:11.770Z,8.47
2023-03-19T08:27:40.196Z,8.97
2023-03-19T08:30:11.709Z,11.70
2023-03-19T08:32:40.069Z,9.53
2023-03-19T08:35:09.923Z,8.00
2023-03-19T08:37:38.728Z,10.93
2023-03-19T08:40:10.834Z,10.47
2023-03-19T08:42:44.459Z,8.60
2023-03-19T08:45:15.727Z,9.67
2023-03-19T08:47:44.840Z,8.00
2023-03-19T08:50:13.764Z,5.90
2023-03-19T08:52:43.076Z,6.97
2023-03-19T08:55:12.998Z,7.00
2023-03-19T08:57:41.428Z,5.40
2023-03-19T09:00:12.818Z,7.33
2023-03-19T09:02:41.168Z,6.20
2023-03-19T09:05:10.308Z,7.27
2023-03-19T09:07:38.710Z,4.20
2023-03-19T09:10:08.651Z,2.60
2023-03-19T09:12:38.369Z,3.60
2023-03-19T09:15:08.502Z,2.97
2023-03-19T09:17:36.874Z,4.90
2023-03-19T09:20:07.450Z,3.10
2023-03-19T09:22:35.796Z,2.10
2023-03-19T09:25:04.334Z,3.53
2023-03-19T09:27:32.735Z,3.37
2023-03-19T09:30:02.561Z,3.70
2023-03-19T09:32:31.075Z,3.87
2023-03-19T09:34:59.491Z,4.00
2023-03-19T09:37:27.897Z,2.97
2023-03-19T09:39:56.406Z,4.20
2023-03-19T09:42:42.851Z,3.07
2023-03-19T09:45:16.513Z,2.03
2023-03-19T09:47:46.672Z,3.80
2023-03-19T09:50:18.751Z,2.53
2023-03-19T09:52:50.455Z,3.60
2023-03-19T09:55:36.013Z,3.20
2023-03-19T09:58:15.704Z,2.10
2023-03-19T10:00:50.429Z,2.20
2023-03-19T10:03:40.515Z,4.80
2023-03-19T10:06:27.226Z,2.30
2023-03-19T10:09:26.120Z,1.97
2023-03-19T10:12:11.926Z,3.43
2023-03-19T10:15:08.852Z,2.70
2023-03-19T10:17:44.186Z,3.53
2023-03-19T10:20:26.583Z,2.43
2023-03-19T10:23:00.648Z,3.23
2023-03-19T10:25:31.323Z,2.83
2023-03-19T10:28:09.049Z,2.90
2023-03-19T10:30:37.816Z,4.27
2023-03-19T10:33:21.896Z,3.13
2023-03-19T10:35:55.741Z,4.70
2023-03-19T10:38:26.353Z,2.37
2023-03-19T10:41:12.659Z,3.77
2023-03-19T10:43:42.511Z,3.57
2023-03-19T10:46:14.057Z,9.40
2023-03-19T10:48:47.867Z,3.47
2023-03-19T10:51:18.457Z,3.07
2023-03-19T10:53:46.862Z,2.93
2023-03-19T10:56:23.079Z,3.20
2023-03-19T10:59:01.462Z,3.47
2023-03-19T11:01:35.523Z,2.65
2023-03-19T11:04:16.141Z,4.03
2023-03-19T11:06:51.116Z,3.60
2023-03-19T11:09:29.508Z,3.73
2023-03-19T11:12:02.060Z,4.17
2023-03-19T11:14:36.578Z,2.85
2023-03-19T11:17:16.012Z,5.35
2023-03-19T11:19:53.361Z,4.43
2023-03-19T11:22:27.143Z,2.88
2023-03-19T11:24:58.495Z,2.58
2023-03-19T11:27:32.482Z,1.97
2023-03-19T11:30:00.921Z,2.63
2023-03-19T11:33:02.364Z,3.55
2023-03-19T11:35:38.927Z,2.50
2023-03-19T11:38:19.641Z,4.72
2023-03-19T11:40:58.266Z,3.10
2023-03-19T11:43:46.233Z,3.42
2023-03-19T11:46:41.786Z,2.80
2023-03-19T11:49:32.807Z,7.90
2023-03-19T11:52:09.795Z,3.72
2023-03-19T11:54:51.488Z,3.47
2023-03-19T11:57:30.591Z,4.13
2023-03-19T12:00:12.792Z,2.10
2023-03-19T12:03:35.140Z,3.08
2023-03-19T12:06:11.529Z,6.72
2023-03-19T12:08:51.302Z,6.50
2023-03-19T12:11:30.806Z,6.20
2023-03-19T12:14:30.262Z,2.33
2023-03-19T12:17:19.217Z,4.65
2023-03-19T12:20:03.341Z,3.28
2023-03-19T12:22:53.642Z,1.85
2023-03-19T12:25:42.012Z,3.78
2023-03-19T12:28:20.137Z,3.45
2023-03-19T12:31:03.107Z,4.45
2023-03-19T12:33:44.553Z,4.18
2023-03-19T12:36:18.633Z,4.05
2023-03-19T12:38:51.920Z,3.97
2023-03-19T12:41:24.966Z,3.80
2023-03-19T12:43:59.427Z,2.20
2023-03-19T12:46:33.032Z,3.45
2023-03-19T12:49:08.703Z,3.13
2023-03-19T12:51:42.542Z,3.50
2023-03-19T12:54:18.420Z,2.85
2023-03-19T12:56:56.045Z,4.57
2023-03-19T12:59:36.582Z,4.53
2023-03-19T13:02:18.162Z,2.93
2023-03-19T13:04:53.435Z,3.05
2023-03-19T13:07:28.307Z,3.20
2023-03-19T13:10:05.262Z,1.70
2023-03-19T13:12:38.674Z,2.40
2023-03-19T13:15:13.183Z,1.77
2023-03-19T13:18:03.585Z,1.90
2023-03-19T13:20:51.467Z,1.95
2023-03-19T13:23:27.363Z,1.70
2023-03-19T13:25:58.959Z,2.73
2023-03-19T13:28:33.493Z,4.80
2023-03-19T13:31:04.328Z,5.70
2023-03-19T13:33:33.356Z,4.20
2023-03-19T13:36:06.443Z,5.30
2023-03-19T13:38:41.793Z,2.60
2023-03-19T13:41:50.042Z,2.97
2023-03-19T13:44:42.249Z,3.23
2023-03-19T13:47:40.797Z,2.27
2023-03-19T13:50:31.481Z,3.63
2023-03-19T13:53:35.136Z,1.87
2023-03-19T13:56:15.728Z,3.60
2023-03-19T13:58:54.022Z,3.70
2023-03-19T14:01:45.733Z,2.30
2023-03-19T14:04:21.348Z,2.57
2023-03-19T14:06:53.015Z,3.20
2023-03-19T14:09:35.942Z,1.70
2023-03-19T14:12:31.248Z,3.17
2023-03-19T14:15:18.076Z,2.60
2023-03-19T14:17:57.675Z,2.33
2023-03-19T14:20:37.107Z,2.47
2023-03-19T14:23:25.124Z,2.63
2023-03-19T14:26:07.938Z,3.50
2023-03-19T14:28:47.524Z,4.80
2023-03-19T14:31:24.980Z,3.40
2023-03-19T14:34:02.954Z,4.30
2023-03-19T14:36:32.428Z,3.70
2023-03-19T14:39:05.409Z,5.13
2023-03-19T14:41:38.068Z,6.03
2023-03-19T14:44:40.790Z,3.23
2023-03-19T14:47:37.882Z,2.97
2023-03-19T14:50:32.474Z,5.03
2023-03-19T14:53:05.729Z,2.63
2023-03-19T14:55:36.190Z,2.87
2023-03-19T14:58:05.271Z,3.13
2023-03-19T15:00:44.355Z,4.70
2023-03-19T15:03:24.336Z,4.67
2023-03-19T15:06:00.351Z,5.33
2023-03-19T15:08:32.397Z,3.27
2023-03-19T15:11:44.310Z,3.17
2023-03-19T15:14:32.899Z,3.83
2023-03-19T15:17:07.760Z,2.57
2023-03-19T15:19:38.609Z,9.77
2023-03-19T15:22:15.379Z,5.70
2023-03-19T15:24:44.206Z,4.97
2023-03-19T15:27:21.570Z,4.13
2023-03-19T15:29:51.748Z,2.70
2023-03-19T15:32:52.165Z,2.10
2023-03-19T15:35:28.297Z,3.00
2023-03-19T15:38:02.034Z,2.20
2023-03-19T15:40:33.504Z,5.90
2023-03-19T15:43:51.997Z,7.33
2023-03-19T15:46:26.701Z,4.93
2023-03-19T15:49:01.211Z,7.00
2023-03-19T15:51:30.166Z,4.77
2023-03-19T15:54:01.721Z,3.33
2023-03-19T15:56:31.517Z,3.63
2023-03-19T15:59:01.121Z,4.23
2023-03-19T16:01:29.856Z,7.90
2023-03-19T16:04:02.405Z,7.27
2023-03-19T16:06:32.826Z,6.17
2023-03-19T16:09:23.410Z,3.37
2023-03-19T16:11:52.365Z,2.47
2023-03-19T16:14:27.534Z,2.60
2023-03-19T16:17:03.441Z,4.53
2023-03-19T16:19:35.951Z,4.10
2023-03-19T16:22:13.170Z,2.37
2023-03-19T16:24:46.037Z,2.47
2023-03-19T16:27:16.859Z,4.17
2023-03-19T16:29:47.669Z,3.63
2023-03-19T16:32:22.868Z,2.40
2023-03-19T16:34:54.126Z,2.80
2023-03-19T16:37:36.362Z,2.27
2023-03-19T16:40:46.790Z,2.50
2023-03-19T16:43:21.551Z,3.73
2023-03-19T16:46:05.717Z,8.23
2023-03-19T16:48:34.188Z,28.13
2023-03-19T16:51:02.583Z,14.57
2023-03-19T16:53:33.901Z,7.07
2023-03-19T16:56:04.179Z,3.77
2023-03-19T16:58:36.242Z,2.90
2023-03-19T17:01:06.240Z,4.43
2023-03-19T17:03:34.586Z,3.83
2023-03-19T17:06:05.090Z,4.40
2023-03-19T17:08:33.752Z,5.40
2023-03-19T17:11:03.831Z,4.83
2023-03-19T17:13:34.962Z,4.33
2023-03-19T17:16:07.113Z,2.80
2023-03-19T17:18:38.004Z,3.60
2023-03-19T17:21:11.126Z,2.37
2023-03-19T17:23:39.640Z,3.17
2023-03-19T17:26:17.193Z,3.17
2023-03-19T17:28:46.028Z,2.20
2023-03-19T17:31:27.667Z,3.43
2023-03-19T17:34:02.258Z,4.13
2023-03-19T17:36:32.548Z,4.00
2023-03-19T17:39:01.020Z,5.47
2023-03-19T17:41:33.061Z,2.20
2023-03-19T17:44:03.234Z,3.53
2023-03-19T17:46:39.216Z,4.60
2023-03-19T17:49:10.375Z,2.10
2023-03-19T17:51:38.774Z,2.63
2023-03-19T17:54:11.986Z,1.60
2023-03-19T17:56:43.374Z,3.77
2023-03-19T17:59:12.025Z,2.00
2023-03-19T18:01:43.034Z,2.47
2023-03-19T18:04:15.442Z,3.00
2023-03-19T18:06:47.959Z,2.17
2023-03-19T18:09:21.155Z,1.80
2023-03-19T18:11:51.177Z,2.40
2023-03-19T18:14:19.669Z,1.40
2023-03-19T18:16:48.554Z,2.00
2023-03-19T18:19:22.701Z,0.97
2023-03-19T18:21:51.037Z,1.93
2023-03-19T18:24:19.474Z,3.27
2023-03-19T18:26:47.866Z,1.10
2023-03-19T18:29:17.604Z,1.20
2023-03-19T18:31:49.463Z,0.87
2023-03-19T18:34:18.662Z,1.53
2023-03-19T18:36:47.287Z,1.93
2023-03-19T18:39:18.314Z,1.83
2023-03-19T18:41:46.684Z,2.97
2023-03-19T18:44:15.017Z,4.30
2023-03-19T18:46:44.799Z,3.07
2023-03-19T18:49:22.705Z,3.43
2023-03-19T18:52:02.248Z,2.83
2023-03-19T18:54:32.178Z,1.97
2023-03-19T18:57:01.607Z,3.50
2023-03-19T18:59:32.773Z,2.13
2023-03-19T19:02:20.907Z,1.40
2023-03-19T19:04:49.537Z,2.03
2023-03-19T19:07:18.276Z,1.60
2023-03-19T19:09:47.262Z,1.60
2023-03-19T19:12:18.862Z,1.10
2023-03-19T19:14:48.093Z,1.33
2023-03-19T19:17:24.035Z,1.70
2023-03-19T19:19:52.409Z,1.87
2023-03-19T19:22:21.314Z,2.13
2023-03-19T19:24:49.760Z,3.93
2023-03-19T19:27:20.673Z,2.63
2023-03-19T19:29:50.084Z,2.90
2023-03-19T19:32:24.775Z,2.70
2023-03-19T19:34:53.511Z,4.47
2023-03-19T19:37:23.504Z,3.80
2023-03-19T19:39:52.653Z,4.20
2023-03-19T19:42:22.705Z,2.53
2023-03-19T19:44:54.841Z,2.43
2023-03-19T19:47:24.589Z,3.10
2023-03-19T19:49:52.910Z,4.17
2023-03-19T19:52:21.604Z,4.17
2023-03-19T19:54:51.883Z,3.70
2023-03-19T19:57:24.084Z,4.90
2023-03-19T19:59:53.537Z,2.90
2023-03-19T20:02:28.402Z,3.90
2023-03-19T20:04:56.923Z,3.80
2023-03-19T20:07:25.693Z,3.97
2023-03-19T20:09:54.054Z,2.67
2023-03-19T20:12:25.189Z,6.73
2023-03-19T20:14:54.233Z,16.27
2023-03-19T20:17:24.104Z,9.37
2023-03-19T20:19:52.585Z,10.00
2023-03-19T20:22:21.088Z,10.97
2023-03-19T20:24:51.375Z,8.90
2023-03-19T20:27:22.891Z,8.70
2023-03-19T20:29:53.699Z,9.30
2023-03-19T20:32:32.702Z,8.87
2023-03-19T20:35:01.574Z,7.97
2023-03-19T20:37:30.832Z,7.77
2023-03-19T20:39:59.202Z,7.93
2023-03-19T20:42:30.447Z,7.37
2023-03-19T20:45:01.496Z,7.40
2023-03-19T20:47:33.097Z,6.97
2023-03-19T20:50:02.006Z,3.03
2023-03-19T20:52:30.939Z,2.30
2023-03-19T20:54:59.348Z,4.43
2023-03-19T20:57:30.745Z,5.90
2023-03-19T21:00:04.333Z,4.83
2023-03-19T21:02:34.045Z,3.37
2023-03-19T21:05:07.534Z,3.57
2023-03-19T21:07:36.230Z,3.20
2023-03-19T21:10:21.080Z,3.60
2023-03-19T21:12:49.994Z,3.00
2023-03-19T21:15:19.765Z,3.07
2023-03-19T21:17:49.428Z,4.63
2023-03-19T21:20:20.578Z,8.70
2023-03-19T21:22:53.967Z,6.47
2023-03-19T21:25:25.657Z,7.83
2023-03-19T21:27:57.376Z,8.70
2023-03-19T21:30:25.864Z,6.23
2023-03-19T21:32:57.042Z,8.03
2023-03-19T21:35:27.399Z,6.40
2023-03-19T21:37:55.837Z,5.30
2023-03-19T21:40:30.690Z,4.13
2023-03-19T21:43:02.862Z,6.03
2023-03-19T21:45:35.453Z,5.97
2023-03-19T21:48:27.078Z,4.37
2023-03-19T21:50:55.514Z,5.00
2023-03-19T21:53:24.349Z,4.97
2023-03-19T21:55:54.251Z,6.43
2023-03-19T21:58:30.665Z,3.97
2023-03-19T22:00:59.170Z,4.10
2023-03-19T22:03:29.330Z,5.43
2023-03-19T22:05:57.798Z,6.00
2023-03-19T22:08:27.272Z,4.17
2023-03-19T22:10:58.715Z,4.07
2023-03-19T22:13:30.448Z,5.23
2023-03-19T22:16:00.498Z,4.87
2023-03-19T22:18:32.059Z,4.37
2023-03-19T22:21:00.395Z,5.33
2023-03-19T22:23:28.720Z,4.40
2023-03-19T22:25:57.172Z,6.60
2023-03-19T22:28:31.893Z,5.03
2023-03-19T22:31:01.886Z,4.03
2023-03-19T22:33:31.704Z,5.03
2023-03-19T22:36:00.133Z,3.90
2023-03-19T22:38:28.493Z,3.80
2023-03-19T22:40:57.851Z,5.60
2023-03-19T22:43:30.453Z,5.03
2023-03-19T22:46:03.980Z,4.60
2023-03-19T22:48:33.964Z,3.93
2023-03-19T22:51:02.316Z,4.57
2023-03-19T22:53:34.251Z,4.77
2023-03-19T22:56:04.135Z,5.43
2023-03-19T22:58:32.545Z,5.60
2023-03-19T23:01:01.744Z,4.90
2023-03-19T23:03:34.994Z,5.17
2023-03-19T23:06:14.466Z,4.90
2023-03-19T23:08:45.703Z,5.57
2023-03-19T23:11:14.027Z,4.70
2023-03-19T23:13:42.450Z,4.63
2023-03-19T23:16:22.029Z,7.67
2023-03-19T23:21:23.507Z,3.73
2023-03-19T23:23:52.264Z,4.90
2023-03-19T23:26:27.853Z,3.80
2023-03-19T23:28:57.953Z,3.97
2023-03-19T23:31:26.416Z,4.20
2023-03-19T23:33:56.158Z,4.17
2023-03-19T23:36:24.606Z,4.70
2023-03-19T23:38:53.717Z,4.87
2023-03-19T23:41:26.117Z,5.47
2023-03-19T23:43:55.447Z,5.93
2023-03-19T23:46:23.946Z,3.73
2023-03-19T23:48:52.680Z,4.83
2023-03-19T23:51:22.834Z,5.50
2023-03-19T23:53:51.334Z,3.87
2023-03-19T23:56:22.828Z,5.10
2023-03-19T23:58:53.778Z,4.17
